createdAt,value
2022-12-16T00:01:26.584Z,42.90
2022-12-16T00:03:54.968Z,36.60
2022-12-16T00:06:22.932Z,41.90
2022-12-16T00:08:49.588Z,40.90
2022-12-16T00:11:17.097Z,40.50
2022-12-16T00:13:43.733Z,37.00
2022-12-16T00:16:12.700Z,41.10
2022-12-16T00:18:39.512Z,42.20
2022-12-16T00:21:06.355Z,44.90
2022-12-16T00:26:00.328Z,43.40
2022-12-16T00:28:27.184Z,41.40
2022-12-16T00:35:49.049Z,36.30
2022-12-16T00:38:15.779Z,37.00
2022-12-16T00:40:42.600Z,35.80
2022-12-16T00:45:35.898Z,41.90
2022-12-16T00:48:02.589Z,40.60
2022-12-16T00:50:29.246Z,43.00
2022-12-16T00:52:55.997Z,39.30
2022-12-16T00:55:22.796Z,41.30
2022-12-16T01:00:16.851Z,40.10
2022-12-16T01:02:44.469Z,38.70
2022-12-16T01:05:12.514Z,42.30
2022-12-16T01:07:39.248Z,36.50
2022-12-16T01:10:06.483Z,38.80
2022-12-16T01:12:33.862Z,34.80
2022-12-16T01:15:00.785Z,38.30
2022-12-16T01:19:54.157Z,37.80
2022-12-16T01:22:22.159Z,36.00
2022-12-16T01:24:48.933Z,37.30
2022-12-16T01:27:15.617Z,37.50
2022-12-16T01:29:42.922Z,41.90
2022-12-16T01:32:12.231Z,39.90
2022-12-16T01:34:39.090Z,48.80
2022-12-16T01:39:32.824Z,46.20
2022-12-16T01:41:59.506Z,46.20
2022-12-16T01:44:26.501Z,48.40
2022-12-16T01:46:59.557Z,49.20
2022-12-16T01:49:47.362Z,47.90
2022-12-16T01:52:18.365Z,58.30
2022-12-16T01:54:48.266Z,52.10
2022-12-16T01:57:21.496Z,46.10
2022-12-16T01:59:48.816Z,49.10
2022-12-16T02:02:15.616Z,53.20
2022-12-16T02:07:28.977Z,54.80
2022-12-16T02:09:55.631Z,52.30
2022-12-16T02:12:34.505Z,45.00
2022-12-16T02:15:16.404Z,43.70
2022-12-16T02:18:08.338Z,47.40
2022-12-16T02:21:04.732Z,49.10
2022-12-16T02:23:43.704Z,38.30
2022-12-16T02:26:19.555Z,39.70
2022-12-16T02:28:55.338Z,45.20
2022-12-16T02:31:55.816Z,41.80
2022-12-16T02:34:42.216Z,43.60
2022-12-16T02:37:25.512Z,40.90
2022-12-16T02:39:59.345Z,42.80
2022-12-16T02:42:35.832Z,41.70
2022-12-16T02:45:05.714Z,44.00
2022-12-16T02:47:32.515Z,43.00
2022-12-16T02:52:27.617Z,35.20
2022-12-16T02:54:59.505Z,37.30
2022-12-16T02:57:49.285Z,43.10
2022-12-16T03:00:18.637Z,39.20
2022-12-16T03:02:59.545Z,34.40
2022-12-16T03:05:48.724Z,39.00
2022-12-16T03:08:36.924Z,35.70
2022-12-16T03:11:05.119Z,38.20
2022-12-16T03:13:52.657Z,35.20
2022-12-16T03:16:21.047Z,35.00
2022-12-16T03:18:50.380Z,31.50
2022-12-16T03:21:18.267Z,33.20
2022-12-16T03:23:52.518Z,33.50
2022-12-16T03:26:41.548Z,35.20
2022-12-16T03:29:13.905Z,30.10
2022-12-16T03:31:43.859Z,29.70
2022-12-16T03:34:21.734Z,36.70
2022-12-16T03:36:51.537Z,31.40
2022-12-16T03:39:19.191Z,33.50
2022-12-16T03:41:45.886Z,31.40
2022-12-16T03:44:13.134Z,35.90
2022-12-16T03:46:39.930Z,33.70
2022-12-16T03:51:33.221Z,36.30
2022-12-16T03:53:59.987Z,43.40
2022-12-16T03:58:53.254Z,37.70
2022-12-16T04:01:20.123Z,41.20
2022-12-16T04:03:46.975Z,43.50
2022-12-16T04:08:46.697Z,42.50
2022-12-16T04:11:32.623Z,40.00
2022-12-16T04:14:18.009Z,42.10
2022-12-16T04:17:03.452Z,38.60
2022-12-16T04:19:55.174Z,37.00
2022-12-16T04:22:51.961Z,41.50
2022-12-16T04:25:24.190Z,42.80
2022-12-16T04:27:51.053Z,40.20
2022-12-16T04:30:22.001Z,42.50
2022-12-16T04:33:30.467Z,37.70
2022-12-16T04:36:15.832Z,40.40
2022-12-16T04:39:01.155Z,38.10
2022-12-16T04:41:46.697Z,68.80
2022-12-16T04:44:32.475Z,51.80
2022-12-16T04:47:18.044Z,53.00
2022-12-16T04:50:03.365Z,51.30
2022-12-16T04:52:48.798Z,44.40
2022-12-16T04:55:34.219Z,45.70
2022-12-16T04:58:20.684Z,45.60
2022-12-16T05:01:06.515Z,69.20
2022-12-16T05:03:51.899Z,48.90
2022-12-16T05:06:37.150Z,107.40
2022-12-16T05:09:22.524Z,61.10
2022-12-16T05:12:07.463Z,51.20
2022-12-16T05:14:52.638Z,45.50
2022-12-16T05:17:38.143Z,53.10
2022-12-16T05:20:23.816Z,45.00
2022-12-16T05:23:13.584Z,49.60
2022-12-16T05:25:58.906Z,48.60
2022-12-16T05:28:44.168Z,51.90
2022-12-16T05:31:29.589Z,51.00
2022-12-16T05:34:14.976Z,44.50
2022-12-16T05:37:00.367Z,41.00
2022-12-16T05:39:45.869Z,40.70
2022-12-16T05:42:31.220Z,43.60
2022-12-16T05:45:16.665Z,48.70
2022-12-16T05:48:01.676Z,43.30
2022-12-16T05:50:47.012Z,41.50
2022-12-16T05:53:32.818Z,40.50
2022-12-16T05:56:18.325Z,46.10
2022-12-16T05:59:03.808Z,38.70
2022-12-16T06:01:49.271Z,34.70
2022-12-16T06:04:34.762Z,30.30
2022-12-16T06:07:20.153Z,34.10
2022-12-16T13:40:43.272Z,71.30
2022-12-16T13:43:55.816Z,100.80
2022-12-16T14:05:48.524Z,30.10
2022-12-16T14:08:35.541Z,36.20
2022-12-16T14:11:22.619Z,22.90
2022-12-16T14:14:19.483Z,32.60
2022-12-16T14:17:13.567Z,26.80
2022-12-16T14:20:17.970Z,32.20
2022-12-16T14:23:56.405Z,85.30
2022-12-16T14:26:42.543Z,28.50
2022-12-16T14:29:39.838Z,21.10
2022-12-16T14:32:39.659Z,10.50
2022-12-16T14:35:54.412Z,14.80
2022-12-16T14:38:48.674Z,17.00
2022-12-16T14:41:41.165Z,36.20
2022-12-16T14:44:43.176Z,60.00
2022-12-16T14:47:36.389Z,32.10
2022-12-16T14:50:22.025Z,24.40
2022-12-16T14:53:07.385Z,28.10
2022-12-16T14:55:53.258Z,80.30
2022-12-16T14:58:40.754Z,65.90
2022-12-16T15:01:42.791Z,45.30
2022-12-16T15:04:35.211Z,24.60
2022-12-16T15:07:22.251Z,28.70
2022-12-16T15:10:10.075Z,106.20
2022-12-16T15:13:00.334Z,33.30
2022-12-16T15:15:52.589Z,25.00
2022-12-16T15:18:42.989Z,23.90
2022-12-16T15:21:28.590Z,31.20
2022-12-16T15:24:14.039Z,36.40
2022-12-16T15:27:06.949Z,35.80
2022-12-16T15:29:56.147Z,16.30
2022-12-16T15:32:52.232Z,31.50
2022-12-16T15:35:55.807Z,39.70
2022-12-16T15:38:42.545Z,50.30
2022-12-16T15:41:48.845Z,59.00
2022-12-16T15:44:44.050Z,22.70
2022-12-16T15:47:58.674Z,16.30
2022-12-16T15:50:46.472Z,75.40
2022-12-16T15:53:49.588Z,15.60
2022-12-16T15:56:36.887Z,13.80
2022-12-16T15:59:42.044Z,40.90
2022-12-16T16:02:47.609Z,99.00
2022-12-16T16:05:35.602Z,51.10
2022-12-16T16:08:20.960Z,81.20
2022-12-16T16:11:06.102Z,40.40
2022-12-16T16:13:51.306Z,21.50
2022-12-16T16:16:36.675Z,45.50
2022-12-16T16:19:22.018Z,13.90
2022-12-16T16:22:07.153Z,15.10
2022-12-16T16:24:52.560Z,14.60
2022-12-16T16:27:37.573Z,15.20
2022-12-16T16:30:23.556Z,9.80
2022-12-16T16:33:08.749Z,12.40
2022-12-16T16:35:54.137Z,25.80
2022-12-16T16:38:39.560Z,42.00
2022-12-16T16:41:30.434Z,12.70
2022-12-16T16:44:19.616Z,8.20
2022-12-16T16:47:05.403Z,6.10
2022-12-16T16:49:52.523Z,24.20
2022-12-16T16:52:39.355Z,16.40
2022-12-16T16:55:25.231Z,14.20
2022-12-16T16:58:10.650Z,13.20
2022-12-16T17:00:56.155Z,14.30
2022-12-16T17:03:42.242Z,14.10
2022-12-16T17:06:28.109Z,10.90
2022-12-16T17:09:13.485Z,11.10
2022-12-16T17:11:58.815Z,15.30
2022-12-16T17:14:44.172Z,19.70
2022-12-16T17:17:29.500Z,11.70
2022-12-16T17:20:14.707Z,23.70
2022-12-16T17:23:00.107Z,25.40
2022-12-16T17:25:45.451Z,14.90
2022-12-16T17:28:30.831Z,12.60
2022-12-16T17:31:16.353Z,10.00
2022-12-16T17:34:01.616Z,10.10
2022-12-16T17:36:47.121Z,10.50
2022-12-16T17:39:32.848Z,13.70
2022-12-16T17:42:18.638Z,29.90
2022-12-16T17:45:05.261Z,25.80
2022-12-16T17:47:50.881Z,14.90
2022-12-16T17:50:36.394Z,86.20
2022-12-16T17:53:22.219Z,20.80
2022-12-16T17:56:07.768Z,25.30
2022-12-16T17:58:54.933Z,11.20
2022-12-16T18:01:40.485Z,22.30
2022-12-16T18:04:26.296Z,20.90
2022-12-16T18:07:12.035Z,20.70
2022-12-16T18:09:57.381Z,11.10
2022-12-16T18:12:42.879Z,44.00
2022-12-16T18:15:28.951Z,37.00
2022-12-16T18:18:14.483Z,8.30
2022-12-16T18:21:00.009Z,9.30
2022-12-16T18:23:48.525Z,9.90
2022-12-16T18:26:34.105Z,11.80
2022-12-16T18:29:19.565Z,13.50
2022-12-16T18:32:06.595Z,18.30
2022-12-16T18:34:52.030Z,10.50
2022-12-16T18:37:37.488Z,6.90
2022-12-16T18:40:24.514Z,8.00
2022-12-16T18:43:11.178Z,6.00
2022-12-16T18:45:56.506Z,7.70
2022-12-16T18:48:42.374Z,7.60
2022-12-16T18:51:27.917Z,8.30
2022-12-16T18:54:13.685Z,7.80
2022-12-16T18:56:59.191Z,8.80
2022-12-16T18:59:44.821Z,19.10
2022-12-16T19:02:30.364Z,8.90
2022-12-16T19:05:16.242Z,7.50
2022-12-16T19:08:01.838Z,8.00
2022-12-16T19:11:04.005Z,5.50
2022-12-16T19:13:49.155Z,6.20
2022-12-16T19:16:35.104Z,6.40
2022-12-16T19:19:20.814Z,7.50
2022-12-16T19:22:06.313Z,5.70
2022-12-16T19:24:55.046Z,5.20
2022-12-16T19:27:42.563Z,6.30
2022-12-16T19:30:28.571Z,5.90
2022-12-16T19:33:14.054Z,6.30
2022-12-16T19:35:59.651Z,22.70
2022-12-16T19:38:45.061Z,8.70
2022-12-16T19:41:34.282Z,4.70
2022-12-16T19:44:20.016Z,5.80
2022-12-16T19:47:05.125Z,5.00
2022-12-16T19:49:50.544Z,4.00
2022-12-16T19:52:35.844Z,4.80
2022-12-16T19:55:21.316Z,4.70
2022-12-16T19:58:06.559Z,6.60
2022-12-16T20:00:51.972Z,14.40
2022-12-16T20:03:37.665Z,8.40
2022-12-16T20:06:43.839Z,6.70
2022-12-16T20:09:28.876Z,11.80
2022-12-16T20:12:14.236Z,9.50
2022-12-16T20:14:59.312Z,8.40
2022-12-16T20:17:44.784Z,9.50
2022-12-16T20:20:30.197Z,8.00
2022-12-16T20:23:15.610Z,6.20
2022-12-16T20:26:01.204Z,4.70
2022-12-16T20:28:46.653Z,5.00
2022-12-16T20:31:32.250Z,4.60
2022-12-16T20:34:17.762Z,4.10
2022-12-16T20:37:03.069Z,3.70
2022-12-16T20:39:56.532Z,5.10
2022-12-16T20:42:46.657Z,5.90
2022-12-16T20:45:54.941Z,4.40
2022-12-16T20:48:41.316Z,4.60
2022-12-16T20:51:27.517Z,4.00
2022-12-16T20:54:12.821Z,4.00
2022-12-16T20:56:58.381Z,4.80
2022-12-16T20:59:43.713Z,4.30
2022-12-16T21:02:33.710Z,6.00
2022-12-16T21:05:20.253Z,5.90
2022-12-16T21:08:05.386Z,3.50
2022-12-16T21:10:51.672Z,5.00
2022-12-16T21:13:37.414Z,5.20
2022-12-16T21:16:24.156Z,5.00
2022-12-16T21:19:09.497Z,4.50
2022-12-16T21:21:55.040Z,5.30
2022-12-16T21:24:42.084Z,4.30
2022-12-16T21:27:27.527Z,5.50
2022-12-16T21:30:12.831Z,5.90
2022-12-16T21:32:58.162Z,7.40
2022-12-16T21:35:43.476Z,5.60
2022-12-16T21:38:29.370Z,4.50
2022-12-16T21:41:14.898Z,6.10
2022-12-16T21:44:00.224Z,5.80
2022-12-16T21:46:45.631Z,4.30
2022-12-16T21:49:30.871Z,8.30
2022-12-16T21:52:16.033Z,6.00
2022-12-16T21:55:01.344Z,4.10
2022-12-16T21:57:46.733Z,4.80
2022-12-16T22:00:32.737Z,6.20
2022-12-16T22:03:17.984Z,4.20
2022-12-16T22:06:03.350Z,5.50
2022-12-16T22:08:48.977Z,5.70
2022-12-16T22:11:34.304Z,5.00
2022-12-16T22:14:20.097Z,8.50
2022-12-16T22:17:05.522Z,5.50
2022-12-16T22:19:56.221Z,5.80
2022-12-16T22:22:41.889Z,5.20
2022-12-16T22:25:27.196Z,5.30
2022-12-16T22:28:12.678Z,6.50
2022-12-16T22:30:58.024Z,5.90
2022-12-16T22:33:43.417Z,5.20
2022-12-16T22:36:29.502Z,8.10
2022-12-16T22:39:14.706Z,4.20
2022-12-16T22:42:00.133Z,4.70
2022-12-16T22:44:45.411Z,6.10
2022-12-16T22:47:30.947Z,6.20
2022-12-16T22:50:16.509Z,6.80
2022-12-16T22:53:01.943Z,8.80
2022-12-16T22:55:47.283Z,7.30
2022-12-16T22:58:32.393Z,7.80
2022-12-16T23:01:18.367Z,5.90
2022-12-16T23:04:03.960Z,6.90
2022-12-16T23:06:49.271Z,8.80
2022-12-16T23:09:34.767Z,9.60
2022-12-16T23:12:20.072Z,8.40
2022-12-16T23:15:05.550Z,8.00
2022-12-16T23:17:51.001Z,8.80
2022-12-16T23:20:37.140Z,7.00
2022-12-16T23:23:22.416Z,8.50
2022-12-16T23:26:18.118Z,9.00
2022-12-16T23:29:03.558Z,6.70
2022-12-16T23:31:49.104Z,10.40
2022-12-16T23:34:34.402Z,9.60
2022-12-16T23:37:19.691Z,13.20
2022-12-16T23:40:05.252Z,14.50
2022-12-16T23:42:50.793Z,13.40
2022-12-16T23:45:37.254Z,12.00
2022-12-16T23:48:24.262Z,10.30
2022-12-16T23:51:09.585Z,10.70
2022-12-16T23:53:56.412Z,10.80
2022-12-16T23:56:46.471Z,10.50
2022-12-16T23:59:31.830Z,13.30
